sensor_id;sensor_type;location;lat;lon;timestamp;P1;durP1;ratioP1;P2;durP2;ratioP2
65373;SDS011;52070;53.760;9.678;2022-09-09T00:00:13;64.32;;;27.92;;
65373;SDS011;52070;53.760;9.678;2022-09-09T00:02:43;45.38;;;26.77;;
65373;SDS011;52070;53.760;9.678;2022-09-09T00:05:17;47.33;;;24.38;;
65373;SDS011;52070;53.760;9.678;2022-09-09T00:07:53;49.53;;;26.95;;
65373;SDS011;52070;53.760;9.678;2022-09-09T00:10:28;64.03;;;28.17;;
65373;SDS011;52070;53.760;9.678;2022-09-09T00:12:57;45.45;;;26.58;;
65373;SDS011;52070;53.760;9.678;2022-09-09T00:15:33;57.60;;;28.00;;
65373;SDS011;52070;53.760;9.678;2022-09-09T00:18:07;47.55;;;26.02;;
65373;SDS011;52070;53.760;9.678;2022-09-09T00:20:43;53.75;;;26.05;;
65373;SDS011;52070;53.760;9.678;2022-09-09T00:23:14;64.40;;;27.23;;
65373;SDS011;52070;53.760;9.678;2022-09-09T00:25:49;44.83;;;26.00;;
65373;SDS011;52070;53.760;9.678;2022-09-09T00:28:22;56.67;;;26.42;;
65373;SDS011;52070;53.760;9.678;2022-09-09T00:30:52;44.50;;;25.77;;
65373;SDS011;52070;53.760;9.678;2022-09-09T00:33:22;125.60;;;27.73;;
65373;SDS011;52070;53.760;9.678;2022-09-09T00:35:51;79.35;;;27.80;;
65373;SDS011;52070;53.760;9.678;2022-09-09T00:38:24;142.07;;;26.60;;
65373;SDS011;52070;53.760;9.678;2022-09-09T00:40:57;41.80;;;24.33;;
65373;SDS011;52070;53.760;9.678;2022-09-09T00:43:28;49.78;;;21.85;;
65373;SDS011;52070;53.760;9.678;2022-09-09T00:46:02;98.93;;;26.25;;
65373;SDS011;52070;53.760;9.678;2022-09-09T00:48:38;148.13;;;28.17;;
65373;SDS011;52070;53.760;9.678;2022-09-09T00:51:15;43.35;;;23.88;;
65373;SDS011;52070;53.760;9.678;2022-09-09T00:53:56;127.97;;;27.80;;
65373;SDS011;52070;53.760;9.678;2022-09-09T00:56:35;45.03;;;24.30;;
65373;SDS011;52070;53.760;9.678;2022-09-09T00:59:11;45.90;;;25.20;;
65373;SDS011;52070;53.760;9.678;2022-09-09T01:04:18;53.70;;;24.95;;
65373;SDS011;52070;53.760;9.678;2022-09-09T01:06:50;56.10;;;25.02;;
65373;SDS011;52070;53.760;9.678;2022-09-09T01:09:22;42.28;;;24.42;;
65373;SDS011;52070;53.760;9.678;2022-09-09T01:11:52;36.03;;;23.17;;
65373;SDS011;52070;53.760;9.678;2022-09-09T01:14:30;83.50;;;26.35;;
65373;SDS011;52070;53.760;9.678;2022-09-09T01:17:09;95.68;;;26.67;;
65373;SDS011;52070;53.760;9.678;2022-09-09T01:19:45;43.90;;;23.85;;
65373;SDS011;52070;53.760;9.678;2022-09-09T01:22:22;44.60;;;24.98;;
65373;SDS011;52070;53.760;9.678;2022-09-09T01:28:00;49.45;;;24.27;;
65373;SDS011;52070;53.760;9.678;2022-09-09T01:30:30;42.83;;;24.70;;
65373;SDS011;52070;53.760;9.678;2022-09-09T01:32:59;51.20;;;25.13;;
65373;SDS011;52070;53.760;9.678;2022-09-09T01:35:31;42.05;;;23.77;;
65373;SDS011;52070;53.760;9.678;2022-09-09T01:38:04;106.35;;;27.25;;
65373;SDS011;52070;53.760;9.678;2022-09-09T01:40:31;91.97;;;25.88;;
65373;SDS011;52070;53.760;9.678;2022-09-09T01:43:00;100.15;;;27.15;;
65373;SDS011;52070;53.760;9.678;2022-09-09T01:45:27;39.63;;;24.17;;
65373;SDS011;52070;53.760;9.678;2022-09-09T01:47:55;39.92;;;24.95;;
65373;SDS011;52070;53.760;9.678;2022-09-09T01:50:23;43.65;;;24.33;;
65373;SDS011;52070;53.760;9.678;2022-09-09T01:52:50;42.45;;;24.60;;
65373;SDS011;52070;53.760;9.678;2022-09-09T01:55:26;40.03;;;23.88;;
65373;SDS011;52070;53.760;9.678;2022-09-09T01:57:58;39.42;;;23.08;;
65373;SDS011;52070;53.760;9.678;2022-09-09T02:00:40;38.85;;;23.05;;
65373;SDS011;52070;53.760;9.678;2022-09-09T02:03:13;43.42;;;23.92;;
65373;SDS011;52070;53.760;9.678;2022-09-09T02:05:49;62.42;;;24.55;;
65373;SDS011;52070;53.760;9.678;2022-09-09T02:08:23;80.55;;;24.33;;
65373;SDS011;52070;53.760;9.678;2022-09-09T02:10:56;35.72;;;22.48;;
65373;SDS011;52070;53.760;9.678;2022-09-09T02:13:29;44.67;;;23.98;;
65373;SDS011;52070;53.760;9.678;2022-09-09T02:16:03;32.58;;;21.95;;
65373;SDS011;52070;53.760;9.678;2022-09-09T02:18:35;48.63;;;23.42;;
65373;SDS011;52070;53.760;9.678;2022-09-09T02:21:05;39.38;;;21.58;;
65373;SDS011;52070;53.760;9.678;2022-09-09T02:23:33;39.40;;;22.45;;
65373;SDS011;52070;53.760;9.678;2022-09-09T02:26:02;124.47;;;25.17;;
65373;SDS011;52070;53.760;9.678;2022-09-09T02:28:32;51.58;;;23.55;;
65373;SDS011;52070;53.760;9.678;2022-09-09T02:31:00;37.90;;;22.67;;
65373;SDS011;52070;53.760;9.678;2022-09-09T02:33:28;39.83;;;24.00;;
65373;SDS011;52070;53.760;9.678;2022-09-09T02:35:59;41.67;;;23.73;;
65373;SDS011;52070;53.760;9.678;2022-09-09T02:38:34;38.05;;;22.90;;
65373;SDS011;52070;53.760;9.678;2022-09-09T02:41:05;40.88;;;23.75;;
65373;SDS011;52070;53.760;9.678;2022-09-09T02:43:34;48.70;;;22.63;;
65373;SDS011;52070;53.760;9.678;2022-09-09T02:46:03;33.40;;;22.70;;
65373;SDS011;52070;53.760;9.678;2022-09-09T02:48:43;30.67;;;20.73;;
65373;SDS011;52070;53.760;9.678;2022-09-09T02:51:22;46.13;;;23.60;;
65373;SDS011;52070;53.760;9.678;2022-09-09T02:53:56;48.72;;;23.52;;
65373;SDS011;52070;53.760;9.678;2022-09-09T02:56:31;160.50;;;27.33;;
65373;SDS011;52070;53.760;9.678;2022-09-09T02:59:04;43.15;;;23.00;;
65373;SDS011;52070;53.760;9.678;2022-09-09T03:01:31;39.33;;;23.65;;
65373;SDS011;52070;53.760;9.678;2022-09-09T03:03:58;40.22;;;23.80;;
65373;SDS011;52070;53.760;9.678;2022-09-09T03:06:26;49.85;;;25.30;;
65373;SDS011;52070;53.760;9.678;2022-09-09T03:08:53;46.67;;;25.65;;
65373;SDS011;52070;53.760;9.678;2022-09-09T03:11:20;46.85;;;25.10;;
65373;SDS011;52070;53.760;9.678;2022-09-09T03:13:47;39.40;;;24.05;;
65373;SDS011;52070;53.760;9.678;2022-09-09T03:16:16;52.92;;;23.48;;
65373;SDS011;52070;53.760;9.678;2022-09-09T03:18:43;36.90;;;22.20;;
65373;SDS011;52070;53.760;9.678;2022-09-09T03:21:11;40.40;;;22.65;;
65373;SDS011;52070;53.760;9.678;2022-09-09T03:23:38;37.58;;;22.05;;
65373;SDS011;52070;53.760;9.678;2022-09-09T03:26:05;35.63;;;22.67;;
65373;SDS011;52070;53.760;9.678;2022-09-09T03:28:33;35.25;;;22.48;;
65373;SDS011;52070;53.760;9.678;2022-09-09T03:31:01;36.95;;;21.95;;
65373;SDS011;52070;53.760;9.678;2022-09-09T03:33:30;34.70;;;21.73;;
65373;SDS011;52070;53.760;9.678;2022-09-09T03:35:58;34.65;;;22.15;;
65373;SDS011;52070;53.760;9.678;2022-09-09T03:38:25;38.03;;;22.58;;
65373;SDS011;52070;53.760;9.678;2022-09-09T03:40:52;34.53;;;22.10;;
65373;SDS011;52070;53.760;9.678;2022-09-09T03:43:21;35.60;;;21.58;;
65373;SDS011;52070;53.760;9.678;2022-09-09T03:45:48;36.10;;;20.60;;
65373;SDS011;52070;53.760;9.678;2022-09-09T03:48:16;32.90;;;20.85;;
65373;SDS011;52070;53.760;9.678;2022-09-09T03:50:46;30.98;;;20.65;;
65373;SDS011;52070;53.760;9.678;2022-09-09T03:53:13;31.05;;;19.40;;
65373;SDS011;52070;53.760;9.678;2022-09-09T03:55:43;34.83;;;19.27;;
65373;SDS011;52070;53.760;9.678;2022-09-09T03:58:11;30.88;;;18.63;;
65373;SDS011;52070;53.760;9.678;2022-09-09T04:00:39;26.95;;;18.88;;
65373;SDS011;52070;53.760;9.678;2022-09-09T04:03:07;30.42;;;19.33;;
65373;SDS011;52070;53.760;9.678;2022-09-09T04:05:35;36.30;;;20.67;;
65373;SDS011;52070;53.760;9.678;2022-09-09T04:08:06;31.13;;;20.30;;
65373;SDS011;52070;53.760;9.678;2022-09-09T04:10:33;26.55;;;17.40;;
65373;SDS011;52070;53.760;9.678;2022-09-09T04:13:02;31.27;;;19.55;;
65373;SDS011;52070;53.760;9.678;2022-09-09T04:15:30;25.13;;;17.50;;
65373;SDS011;52070;53.760;9.678;2022-09-09T04:17:57;25.83;;;17.73;;
65373;SDS011;52070;53.760;9.678;2022-09-09T04:20:24;30.15;;;19.45;;
65373;SDS011;52070;53.760;9.678;2022-09-09T04:22:51;27.60;;;18.40;;
65373;SDS011;52070;53.760;9.678;2022-09-09T04:25:19;27.85;;;17.45;;
65373;SDS011;52070;53.760;9.678;2022-09-09T04:27:46;26.40;;;16.88;;
65373;SDS011;52070;53.760;9.678;2022-09-09T04:30:13;25.38;;;17.77;;
65373;SDS011;52070;53.760;9.678;2022-09-09T04:32:40;30.77;;;18.98;;
65373;SDS011;52070;53.760;9.678;2022-09-09T04:35:07;30.25;;;18.83;;
65373;SDS011;52070;53.760;9.678;2022-09-09T04:37:34;34.08;;;19.00;;
65373;SDS011;52070;53.760;9.678;2022-09-09T04:40:01;26.83;;;17.05;;
65373;SDS011;52070;53.760;9.678;2022-09-09T04:42:30;28.45;;;17.92;;
65373;SDS011;52070;53.760;9.678;2022-09-09T04:45:01;35.83;;;18.60;;
65373;SDS011;52070;53.760;9.678;2022-09-09T04:47:28;28.95;;;18.00;;
65373;SDS011;52070;53.760;9.678;2022-09-09T04:49:55;31.95;;;18.50;;
65373;SDS011;52070;53.760;9.678;2022-09-09T04:52:22;35.88;;;18.92;;
65373;SDS011;52070;53.760;9.678;2022-09-09T04:54:49;35.67;;;18.55;;
65373;SDS011;52070;53.760;9.678;2022-09-09T04:57:16;37.33;;;18.55;;
65373;SDS011;52070;53.760;9.678;2022-09-09T04:59:44;27.10;;;17.60;;
65373;SDS011;52070;53.760;9.678;2022-09-09T05:02:11;29.42;;;16.88;;
65373;SDS011;52070;53.760;9.678;2022-09-09T05:04:38;30.75;;;17.65;;
65373;SDS011;52070;53.760;9.678;2022-09-09T05:07:05;28.85;;;17.65;;
65373;SDS011;52070;53.760;9.678;2022-09-09T05:09:33;24.33;;;16.98;;
65373;SDS011;52070;53.760;9.678;2022-09-09T05:12:00;24.40;;;16.17;;
65373;SDS011;52070;53.760;9.678;2022-09-09T05:14:28;23.70;;;15.90;;
65373;SDS011;52070;53.760;9.678;2022-09-09T05:16:56;25.15;;;16.38;;
65373;SDS011;52070;53.760;9.678;2022-09-09T05:19:25;33.65;;;18.98;;
65373;SDS011;52070;53.760;9.678;2022-09-09T05:21:52;24.63;;;15.18;;
65373;SDS011;52070;53.760;9.678;2022-09-09T05:24:19;26.23;;;17.00;;
65373;SDS011;52070;53.760;9.678;2022-09-09T05:26:48;28.65;;;16.67;;
65373;SDS011;52070;53.760;9.678;2022-09-09T05:29:16;26.95;;;15.85;;
65373;SDS011;52070;53.760;9.678;2022-09-09T05:31:44;24.20;;;16.67;;
65373;SDS011;52070;53.760;9.678;2022-09-09T05:34:13;25.15;;;16.25;;
65373;SDS011;52070;53.760;9.678;2022-09-09T05:36:40;23.80;;;15.05;;
65373;SDS011;52070;53.760;9.678;2022-09-09T05:39:07;22.10;;;15.60;;
65373;SDS011;52070;53.760;9.678;2022-09-09T05:41:34;28.17;;;16.60;;
65373;SDS011;52070;53.760;9.678;2022-09-09T05:44:02;25.35;;;16.63;;
65373;SDS011;52070;53.760;9.678;2022-09-09T05:46:29;23.25;;;15.68;;
65373;SDS011;52070;53.760;9.678;2022-09-09T05:48:56;24.75;;;15.65;;
65373;SDS011;52070;53.760;9.678;2022-09-09T05:51:25;28.85;;;17.73;;
65373;SDS011;52070;53.760;9.678;2022-09-09T05:53:55;28.05;;;15.85;;
65373;SDS011;52070;53.760;9.678;2022-09-09T05:56:24;23.30;;;16.20;;
65373;SDS011;52070;53.760;9.678;2022-09-09T05:58:53;30.52;;;17.60;;
65373;SDS011;52070;53.760;9.678;2022-09-09T06:01:22;28.20;;;17.33;;
65373;SDS011;52070;53.760;9.678;2022-09-09T06:03:50;26.85;;;17.17;;
65373;SDS011;52070;53.760;9.678;2022-09-09T06:06:18;21.92;;;14.88;;
65373;SDS011;52070;53.760;9.678;2022-09-09T06:08:49;25.85;;;15.90;;
65373;SDS011;52070;53.760;9.678;2022-09-09T06:11:18;27.10;;;15.38;;
65373;SDS011;52070;53.760;9.678;2022-09-09T06:13:46;30.98;;;15.73;;
65373;SDS011;52070;53.760;9.678;2022-09-09T06:16:14;27.20;;;15.82;;
65373;SDS011;52070;53.760;9.678;2022-09-09T06:18:42;30.73;;;15.77;;
65373;SDS011;52070;53.760;9.678;2022-09-09T06:21:11;21.48;;;14.27;;
65373;SDS011;52070;53.760;9.678;2022-09-09T06:23:41;26.55;;;14.60;;
65373;SDS011;52070;53.760;9.678;2022-09-09T06:26:11;25.85;;;14.00;;
65373;SDS011;52070;53.760;9.678;2022-09-09T06:28:40;20.95;;;13.65;;
65373;SDS011;52070;53.760;9.678;2022-09-09T06:31:09;19.10;;;12.13;;
65373;SDS011;52070;53.760;9.678;2022-09-09T06:33:37;18.63;;;11.82;;
65373;SDS011;52070;53.760;9.678;2022-09-09T06:36:07;20.20;;;11.90;;
65373;SDS011;52070;53.760;9.678;2022-09-09T06:38:36;17.73;;;11.68;;
65373;SDS011;52070;53.760;9.678;2022-09-09T06:41:04;26.77;;;12.77;;
65373;SDS011;52070;53.760;9.678;2022-09-09T06:43:33;18.73;;;11.15;;
65373;SDS011;52070;53.760;9.678;2022-09-09T06:46:01;18.58;;;11.95;;
65373;SDS011;52070;53.760;9.678;2022-09-09T06:48:29;18.70;;;11.25;;
65373;SDS011;52070;53.760;9.678;2022-09-09T06:51:00;18.95;;;10.75;;
65373;SDS011;52070;53.760;9.678;2022-09-09T06:53:27;18.55;;;10.50;;
65373;SDS011;52070;53.760;9.678;2022-09-09T06:55:54;21.58;;;11.23;;
65373;SDS011;52070;53.760;9.678;2022-09-09T06:58:22;18.98;;;10.50;;
65373;SDS011;52070;53.760;9.678;2022-09-09T07:00:50;15.60;;;10.25;;
65373;SDS011;52070;53.760;9.678;2022-09-09T07:03:17;18.48;;;10.77;;
65373;SDS011;52070;53.760;9.678;2022-09-09T07:05:53;16.45;;;10.10;;
65373;SDS011;52070;53.760;9.678;2022-09-09T07:08:20;16.52;;;9.98;;
65373;SDS011;52070;53.760;9.678;2022-09-09T07:10:47;18.75;;;9.65;;
65373;SDS011;52070;53.760;9.678;2022-09-09T07:13:14;14.95;;;9.68;;
65373;SDS011;52070;53.760;9.678;2022-09-09T07:15:41;20.13;;;9.75;;
65373;SDS011;52070;53.760;9.678;2022-09-09T07:18:10;17.00;;;9.45;;
65373;SDS011;52070;53.760;9.678;2022-09-09T07:20:37;19.85;;;9.60;;
65373;SDS011;52070;53.760;9.678;2022-09-09T07:23:04;14.57;;;8.98;;
65373;SDS011;52070;53.760;9.678;2022-09-09T07:25:31;14.30;;;9.25;;
65373;SDS011;52070;53.760;9.678;2022-09-09T07:27:58;15.02;;;9.07;;
65373;SDS011;52070;53.760;9.678;2022-09-09T07:30:24;14.63;;;8.68;;
65373;SDS011;52070;53.760;9.678;2022-09-09T07:32:51;14.73;;;9.18;;
65373;SDS011;52070;53.760;9.678;2022-09-09T07:35:20;17.20;;;9.23;;
65373;SDS011;52070;53.760;9.678;2022-09-09T07:37:47;16.27;;;9.00;;
65373;SDS011;52070;53.760;9.678;2022-09-09T07:40:14;15.77;;;8.68;;
65373;SDS011;52070;53.760;9.678;2022-09-09T07:42:41;17.58;;;9.05;;
65373;SDS011;52070;53.760;9.678;2022-09-09T07:45:08;18.05;;;8.90;;
65373;SDS011;52070;53.760;9.678;2022-09-09T07:47:35;16.33;;;8.90;;
65373;SDS011;52070;53.760;9.678;2022-09-09T07:50:02;13.18;;;8.63;;
65373;SDS011;52070;53.760;9.678;2022-09-09T07:52:31;11.77;;;8.63;;
65373;SDS011;52070;53.760;9.678;2022-09-09T07:54:59;14.13;;;9.55;;
65373;SDS011;52070;53.760;9.678;2022-09-09T07:57:27;15.48;;;8.68;;
65373;SDS011;52070;53.760;9.678;2022-09-09T07:59:56;16.65;;;8.65;;
65373;SDS011;52070;53.760;9.678;2022-09-09T08:02:23;14.93;;;8.77;;
65373;SDS011;52070;53.760;9.678;2022-09-09T08:04:51;12.88;;;7.55;;
65373;SDS011;52070;53.760;9.678;2022-09-09T08:07:18;21.90;;;9.20;;
65373;SDS011;52070;53.760;9.678;2022-09-09T08:09:48;13.45;;;8.27;;
65373;SDS011;52070;53.760;9.678;2022-09-09T08:12:15;12.68;;;8.48;;
65373;SDS011;52070;53.760;9.678;2022-09-09T08:14:43;15.10;;;8.40;;
65373;SDS011;52070;53.760;9.678;2022-09-09T08:17:10;13.45;;;8.30;;
65373;SDS011;52070;53.760;9.678;2022-09-09T08:19:37;13.23;;;8.00;;
65373;SDS011;52070;53.760;9.678;2022-09-09T08:22:04;12.35;;;8.57;;
65373;SDS011;52070;53.760;9.678;2022-09-09T08:24:31;10.75;;;7.78;;
65373;SDS011;52070;53.760;9.678;2022-09-09T08:27:00;13.15;;;7.25;;
65373;SDS011;52070;53.760;9.678;2022-09-09T08:29:27;17.83;;;8.57;;
65373;SDS011;52070;53.760;9.678;2022-09-09T08:31:54;13.07;;;8.57;;
65373;SDS011;52070;53.760;9.678;2022-09-09T08:34:23;13.27;;;7.85;;
65373;SDS011;52070;53.760;9.678;2022-09-09T08:36:52;13.65;;;7.55;;
65373;SDS011;52070;53.760;9.678;2022-09-09T08:39:20;12.75;;;8.32;;
65373;SDS011;52070;53.760;9.678;2022-09-09T08:44:50;12.25;;;7.50;;
65373;SDS011;52070;53.760;9.678;2022-09-09T08:47:29;9.15;;;6.00;;
65373;SDS011;52070;53.760;9.678;2022-09-09T08:50:04;10.50;;;6.32;;
65373;SDS011;52070;53.760;9.678;2022-09-09T08:52:41;9.73;;;6.32;;
65373;SDS011;52070;53.760;9.678;2022-09-09T08:55:20;11.02;;;6.38;;
65373;SDS011;52070;53.760;9.678;2022-09-09T08:57:52;9.95;;;6.55;;
65373;SDS011;52070;53.760;9.678;2022-09-09T09:02:53;9.18;;;6.13;;
65373;SDS011;52070;53.760;9.678;2022-09-09T09:05:27;16.27;;;6.38;;
65373;SDS011;52070;53.760;9.678;2022-09-09T09:08:03;8.65;;;5.60;;
65373;SDS011;52070;53.760;9.678;2022-09-09T09:10:38;8.48;;;5.13;;
65373;SDS011;52070;53.760;9.678;2022-09-09T09:13:18;9.43;;;5.57;;
65373;SDS011;52070;53.760;9.678;2022-09-09T09:15:49;10.05;;;5.75;;
65373;SDS011;52070;53.760;9.678;2022-09-09T09:18:20;8.50;;;5.80;;
65373;SDS011;52070;53.760;9.678;2022-09-09T09:20:49;7.95;;;4.97;;
65373;SDS011;52070;53.760;9.678;2022-09-09T09:23:21;7.85;;;5.15;;
65373;SDS011;52070;53.760;9.678;2022-09-09T09:25:50;9.55;;;5.28;;
65373;SDS011;52070;53.760;9.678;2022-09-09T09:28:24;8.82;;;4.85;;
65373;SDS011;52070;53.760;9.678;2022-09-09T09:30:56;7.07;;;4.15;;
65373;SDS011;52070;53.760;9.678;2022-09-09T09:33:29;9.45;;;4.40;;
65373;SDS011;52070;53.760;9.678;2022-09-09T09:36:02;9.23;;;4.30;;
65373;SDS011;52070;53.760;9.678;2022-09-09T09:38:33;5.07;;;3.78;;
65373;SDS011;52070;53.760;9.678;2022-09-09T09:41:01;5.95;;;3.60;;
65373;SDS011;52070;53.760;9.678;2022-09-09T09:43:31;7.43;;;3.50;;
65373;SDS011;52070;53.760;9.678;2022-09-09T09:46:00;7.78;;;3.72;;
65373;SDS011;52070;53.760;9.678;2022-09-09T09:48:29;9.00;;;3.90;;
65373;SDS011;52070;53.760;9.678;2022-09-09T09:50:58;5.68;;;3.67;;
65373;SDS011;52070;53.760;9.678;2022-09-09T09:53:28;6.63;;;3.13;;
65373;SDS011;52070;53.760;9.678;2022-09-09T09:55:57;5.10;;;3.15;;
65373;SDS011;52070;53.760;9.678;2022-09-09T09:58:26;10.80;;;3.20;;
65373;SDS011;52070;53.760;9.678;2022-09-09T10:00:58;6.95;;;3.03;;
65373;SDS011;52070;53.760;9.678;2022-09-09T10:03:26;4.85;;;2.38;;
65373;SDS011;52070;53.760;9.678;2022-09-09T10:05:54;8.60;;;2.80;;
65373;SDS011;52070;53.760;9.678;2022-09-09T10:08:22;6.78;;;2.70;;
65373;SDS011;52070;53.760;9.678;2022-09-09T10:10:52;4.65;;;2.20;;
65373;SDS011;52070;53.760;9.678;2022-09-09T10:13:44;5.63;;;2.83;;
65373;SDS011;52070;53.760;9.678;2022-09-09T10:16:22;6.50;;;2.47;;
65373;SDS011;52070;53.760;9.678;2022-09-09T10:18:58;3.05;;;1.80;;
65373;SDS011;52070;53.760;9.678;2022-09-09T10:27:27;9.70;;;2.03;;
65373;SDS011;52070;53.760;9.678;2022-09-09T10:30:05;3.13;;;1.70;;
65373;SDS011;52070;53.760;9.678;2022-09-09T10:32:44;7.57;;;1.60;;
65373;SDS011;52070;53.760;9.678;2022-09-09T10:35:23;4.20;;;1.40;;
65373;SDS011;52070;53.760;9.678;2022-09-09T10:37:59;3.95;;;1.27;;
65373;SDS011;52070;53.760;9.678;2022-09-09T10:40:38;3.97;;;1.42;;
65373;SDS011;52070;53.760;9.678;2022-09-09T10:43:12;12.35;;;2.28;;
65373;SDS011;52070;53.760;9.678;2022-09-09T10:45:48;5.90;;;1.90;;
65373;SDS011;52070;53.760;9.678;2022-09-09T10:48:30;2.80;;;1.50;;
65373;SDS011;52070;53.760;9.678;2022-09-09T10:51:10;2.80;;;1.30;;
65373;SDS011;52070;53.760;9.678;2022-09-09T10:53:51;3.42;;;1.70;;
65373;SDS011;52070;53.760;9.678;2022-09-09T10:56:25;4.28;;;1.80;;
65373;SDS011;52070;53.760;9.678;2022-09-09T10:58:53;4.95;;;1.60;;
65373;SDS011;52070;53.760;9.678;2022-09-09T11:01:25;6.50;;;1.40;;
65373;SDS011;52070;53.760;9.678;2022-09-09T11:03:57;4.13;;;1.45;;
65373;SDS011;52070;53.760;9.678;2022-09-09T11:06:32;3.28;;;1.20;;
65373;SDS011;52070;53.760;9.678;2022-09-09T11:09:04;2.50;;;0.95;;
65373;SDS011;52070;53.760;9.678;2022-09-09T11:11:33;2.60;;;1.10;;
65373;SDS011;52070;53.760;9.678;2022-09-09T11:14:09;2.53;;;1.00;;
65373;SDS011;52070;53.760;9.678;2022-09-09T11:16:39;3.00;;;1.15;;
65373;SDS011;52070;53.760;9.678;2022-09-09T11:19:13;2.35;;;1.10;;
65373;SDS011;52070;53.760;9.678;2022-09-09T11:21:45;4.55;;;1.05;;
65373;SDS011;52070;53.760;9.678;2022-09-09T11:24:14;4.55;;;1.10;;
65373;SDS011;52070;53.760;9.678;2022-09-09T11:26:45;4.55;;;1.02;;
65373;SDS011;52070;53.760;9.678;2022-09-09T11:29:20;2.25;;;1.00;;
65373;SDS011;52070;53.760;9.678;2022-09-09T11:32:13;2.80;;;0.95;;
65373;SDS011;52070;53.760;9.678;2022-09-09T11:34:55;3.42;;;0.98;;
65373;SDS011;52070;53.760;9.678;2022-09-09T11:37:35;2.63;;;1.02;;
65373;SDS011;52070;53.760;9.678;2022-09-09T11:40:22;4.80;;;1.10;;
65373;SDS011;52070;53.760;9.678;2022-09-09T11:43:00;4.25;;;0.77;;
65373;SDS011;52070;53.760;9.678;2022-09-09T11:45:29;1.85;;;0.90;;
65373;SDS011;52070;53.760;9.678;2022-09-09T11:47:59;6.22;;;1.00;;
65373;SDS011;52070;53.760;9.678;2022-09-09T11:50:30;3.70;;;1.13;;
65373;SDS011;52070;53.760;9.678;2022-09-09T11:53:19;3.75;;;0.80;;
65373;SDS011;52070;53.760;9.678;2022-09-09T11:58:55;2.92;;;0.98;;
65373;SDS011;52070;53.760;9.678;2022-09-09T12:01:26;3.22;;;1.10;;
65373;SDS011;52070;53.760;9.678;2022-09-09T12:04:05;3.78;;;1.20;;
65373;SDS011;52070;53.760;9.678;2022-09-09T12:06:56;2.45;;;1.42;;
65373;SDS011;52070;53.760;9.678;2022-09-09T12:09:33;5.28;;;1.23;;
65373;SDS011;52070;53.760;9.678;2022-09-09T12:12:27;3.67;;;1.20;;
65373;SDS011;52070;53.760;9.678;2022-09-09T12:14:57;3.97;;;1.25;;
65373;SDS011;52070;53.760;9.678;2022-09-09T12:17:43;4.93;;;1.00;;
65373;SDS011;52070;53.760;9.678;2022-09-09T12:20:12;3.30;;;1.10;;
65373;SDS011;52070;53.760;9.678;2022-09-09T12:22:45;3.13;;;1.20;;
65373;SDS011;52070;53.760;9.678;2022-09-09T12:25:22;3.53;;;1.10;;
65373;SDS011;52070;53.760;9.678;2022-09-09T12:27:59;1.90;;;0.90;;
65373;SDS011;52070;53.760;9.678;2022-09-09T12:30:31;5.38;;;1.00;;
65373;SDS011;52070;53.760;9.678;2022-09-09T12:33:08;4.22;;;1.25;;
65373;SDS011;52070;53.760;9.678;2022-09-09T12:35:39;5.15;;;1.40;;
65373;SDS011;52070;53.760;9.678;2022-09-09T12:38:12;4.78;;;1.52;;
65373;SDS011;52070;53.760;9.678;2022-09-09T12:40:43;5.55;;;1.35;;
65373;SDS011;52070;53.760;9.678;2022-09-09T12:43:21;3.17;;;1.33;;
65373;SDS011;52070;53.760;9.678;2022-09-09T12:45:49;3.33;;;1.17;;
65373;SDS011;52070;53.760;9.678;2022-09-09T12:48:25;4.45;;;1.25;;
65373;SDS011;52070;53.760;9.678;2022-09-09T12:50:57;6.65;;;1.45;;
65373;SDS011;52070;53.760;9.678;2022-09-09T12:53:29;5.35;;;1.20;;
65373;SDS011;52070;53.760;9.678;2022-09-09T12:55:58;4.05;;;1.45;;
65373;SDS011;52070;53.760;9.678;2022-09-09T12:58:28;4.55;;;1.30;;
65373;SDS011;52070;53.760;9.678;2022-09-09T13:00:58;4.97;;;1.50;;
65373;SDS011;52070;53.760;9.678;2022-09-09T13:03:26;2.75;;;1.13;;
65373;SDS011;52070;53.760;9.678;2022-09-09T13:05:54;5.05;;;1.58;;
65373;SDS011;52070;53.760;9.678;2022-09-09T13:08:27;4.03;;;1.38;;
65373;SDS011;52070;53.760;9.678;2022-09-09T13:10:54;3.88;;;1.20;;
65373;SDS011;52070;53.760;9.678;2022-09-09T13:13:26;6.68;;;1.40;;
65373;SDS011;52070;53.760;9.678;2022-09-09T13:15:56;3.25;;;1.40;;
65373;SDS011;52070;53.760;9.678;2022-09-09T13:18:25;5.38;;;1.30;;
65373;SDS011;52070;53.760;9.678;2022-09-09T13:20:55;6.30;;;1.20;;
65373;SDS011;52070;53.760;9.678;2022-09-09T13:23:25;4.85;;;1.20;;
65373;SDS011;52070;53.760;9.678;2022-09-09T13:25:57;7.30;;;1.30;;
65373;SDS011;52070;53.760;9.678;2022-09-09T13:28:25;6.82;;;1.42;;
65373;SDS011;52070;53.760;9.678;2022-09-09T13:30:57;3.38;;;1.25;;
65373;SDS011;52070;53.760;9.678;2022-09-09T13:33:31;5.38;;;1.13;;
65373;SDS011;52070;53.760;9.678;2022-09-09T13:36:00;6.80;;;1.30;;
65373;SDS011;52070;53.760;9.678;2022-09-09T13:38:32;7.55;;;1.40;;
65373;SDS011;52070;53.760;9.678;2022-09-09T13:41:01;5.13;;;1.40;;
65373;SDS011;52070;53.760;9.678;2022-09-09T13:43:30;9.93;;;1.67;;
65373;SDS011;52070;53.760;9.678;2022-09-09T13:46:00;6.25;;;1.38;;
65373;SDS011;52070;53.760;9.678;2022-09-09T13:48:28;5.18;;;1.40;;
65373;SDS011;52070;53.760;9.678;2022-09-09T13:50:58;4.47;;;1.50;;
65373;SDS011;52070;53.760;9.678;2022-09-09T13:53:27;6.85;;;2.17;;
65373;SDS011;52070;53.760;9.678;2022-09-09T13:55:55;7.43;;;1.70;;
65373;SDS011;52070;53.760;9.678;2022-09-09T13:58:23;5.93;;;1.73;;
65373;SDS011;52070;53.760;9.678;2022-09-09T14:00:51;9.02;;;2.10;;
65373;SDS011;52070;53.760;9.678;2022-09-09T14:03:19;6.15;;;2.10;;
65373;SDS011;52070;53.760;9.678;2022-09-09T14:05:46;9.23;;;2.22;;
65373;SDS011;52070;53.760;9.678;2022-09-09T14:08:21;5.97;;;2.03;;
65373;SDS011;52070;53.760;9.678;2022-09-09T14:10:51;8.70;;;2.17;;
65373;SDS011;52070;53.760;9.678;2022-09-09T14:13:22;7.60;;;2.00;;
65373;SDS011;52070;53.760;9.678;2022-09-09T14:15:50;5.68;;;1.65;;
65373;SDS011;52070;53.760;9.678;2022-09-09T14:18:17;7.47;;;1.60;;
65373;SDS011;52070;53.760;9.678;2022-09-09T14:20:44;6.40;;;1.40;;
65373;SDS011;52070;53.760;9.678;2022-09-09T14:23:11;5.00;;;1.50;;
65373;SDS011;52070;53.760;9.678;2022-09-09T14:25:39;2.55;;;1.33;;
65373;SDS011;52070;53.760;9.678;2022-09-09T14:28:08;3.13;;;1.27;;
65373;SDS011;52070;53.760;9.678;2022-09-09T14:30:38;7.22;;;1.52;;
65373;SDS011;52070;53.760;9.678;2022-09-09T14:33:06;5.63;;;1.50;;
65373;SDS011;52070;53.760;9.678;2022-09-09T14:35:34;7.20;;;1.50;;
65373;SDS011;52070;53.760;9.678;2022-09-09T14:38:02;5.13;;;1.58;;
65373;SDS011;52070;53.760;9.678;2022-09-09T14:40:29;4.68;;;1.63;;
65373;SDS011;52070;53.760;9.678;2022-09-09T14:42:56;3.75;;;1.38;;
65373;SDS011;52070;53.760;9.678;2022-09-09T14:45:23;3.08;;;1.08;;
65373;SDS011;52070;53.760;9.678;2022-09-09T14:47:53;5.25;;;1.33;;
65373;SDS011;52070;53.760;9.678;2022-09-09T14:50:20;4.30;;;1.10;;
65373;SDS011;52070;53.760;9.678;2022-09-09T14:52:48;2.08;;;1.00;;
65373;SDS011;52070;53.760;9.678;2022-09-09T14:55:16;4.20;;;1.13;;
65373;SDS011;52070;53.760;9.678;2022-09-09T14:57:43;7.63;;;1.50;;
65373;SDS011;52070;53.760;9.678;2022-09-09T15:00:10;2.50;;;1.23;;
65373;SDS011;52070;53.760;9.678;2022-09-09T15:02:39;5.85;;;1.30;;
65373;SDS011;52070;53.760;9.678;2022-09-09T15:05:08;2.50;;;1.10;;
65373;SDS011;52070;53.760;9.678;2022-09-09T15:07:36;5.28;;;1.50;;
65373;SDS011;52070;53.760;9.678;2022-09-09T15:10:03;4.07;;;1.40;;
65373;SDS011;52070;53.760;9.678;2022-09-09T15:12:32;7.90;;;1.35;;